sensor_id;sensor_type;location;lat;lon;timestamp;pressure;altitude;pressure_sealevel;temperature;humidity
69570;BME280;56781;42.292;23.146;2023-04-24T00:01:11;95380.16;;;7.29;100.00
69570;BME280;56781;42.292;23.146;2023-04-24T00:03:39;95385.78;;;7.27;100.00
69570;BME280;56781;42.292;23.146;2023-04-24T00:06:08;95381.00;;;7.24;100.00
69570;BME280;56781;42.292;23.146;2023-04-24T00:08:35;95378.88;;;7.21;100.00
69570;BME280;56781;42.292;23.146;2023-04-24T00:11:03;95364.22;;;7.24;100.00
69570;BME280;56781;42.292;23.146;2023-04-24T00:13:30;95377.34;;;7.44;100.00
69570;BME280;56781;42.292;23.146;2023-04-24T00:15:57;95360.69;;;7.58;100.00
69570;BME280;56781;42.292;23.146;2023-04-24T00:18:24;95366.91;;;7.72;100.00
69570;BME280;56781;42.292;23.146;2023-04-24T00:20:51;95397.34;;;7.90;100.00
69570;BME280;56781;42.292;23.146;2023-04-24T00:23:19;95386.72;;;7.85;100.00
69570;BME280;56781;42.292;23.146;2023-04-24T00:25:46;95399.44;;;7.69;100.00
69570;BME280;56781;42.292;23.146;2023-04-24T00:28:13;95399.53;;;7.59;100.00
69570;BME280;56781;42.292;23.146;2023-04-24T00:30:40;95389.41;;;7.61;100.00
69570;BME280;56781;42.292;23.146;2023-04-24T00:33:08;95392.06;;;7.85;100.00
69570;BME280;56781;42.292;23.146;2023-04-24T00:35:35;95367.63;;;7.77;100.00
69570;BME280;56781;42.292;23.146;2023-04-24T00:38:02;95367.91;;;7.76;100.00
69570;BME280;56781;42.292;23.146;2023-04-24T00:40:30;95357.25;;;7.76;100.00
69570;BME280;56781;42.292;23.146;2023-04-24T00:42:57;95342.41;;;7.70;100.00
69570;BME280;56781;42.292;23.146;2023-04-24T00:45:24;95358.97;;;7.67;100.00
69570;BME280;56781;42.292;23.146;2023-04-24T00:47:52;95343.91;;;7.33;100.00
69570;BME280;56781;42.292;23.146;2023-04-24T00:50:21;95346.28;;;7.35;100.00
69570;BME280;56781;42.292;23.146;2023-04-24T00:52:48;95371.56;;;7.61;100.00
69570;BME280;56781;42.292;23.146;2023-04-24T00:55:16;95366.84;;;7.77;100.00
69570;BME280;56781;42.292;23.146;2023-04-24T00:57:44;95335.50;;;7.69;100.00
69570;BME280;56781;42.292;23.146;2023-04-24T01:00:12;95351.66;;;7.96;100.00
69570;BME280;56781;42.292;23.146;2023-04-24T01:02:41;95328.31;;;7.88;100.00
69570;BME280;56781;42.292;23.146;2023-04-24T01:05:14;95339.03;;;7.83;100.00
69570;BME280;56781;42.292;23.146;2023-04-24T01:07:44;95337.41;;;7.87;100.00
69570;BME280;56781;42.292;23.146;2023-04-24T01:10:13;95348.72;;;7.98;100.00
69570;BME280;56781;42.292;23.146;2023-04-24T01:12:41;95316.53;;;7.70;100.00
69570;BME280;56781;42.292;23.146;2023-04-24T01:15:09;95344.78;;;7.71;100.00
69570;BME280;56781;42.292;23.146;2023-04-24T01:17:36;95333.63;;;7.69;100.00
69570;BME280;56781;42.292;23.146;2023-04-24T01:20:04;95345.31;;;7.92;100.00
69570;BME280;56781;42.292;23.146;2023-04-24T01:22:35;95360.94;;;7.80;100.00
69570;BME280;56781;42.292;23.146;2023-04-24T01:25:03;95341.34;;;7.71;100.00
69570;BME280;56781;42.292;23.146;2023-04-24T01:27:30;95358.91;;;7.72;100.00
69570;BME280;56781;42.292;23.146;2023-04-24T01:29:58;95340.06;;;7.44;100.00
69570;BME280;56781;42.292;23.146;2023-04-24T01:32:25;95372.69;;;7.55;100.00
69570;BME280;56781;42.292;23.146;2023-04-24T01:34:53;95371.09;;;7.54;100.00
69570;BME280;56781;42.292;23.146;2023-04-24T01:37:22;95342.03;;;7.58;100.00
69570;BME280;56781;42.292;23.146;2023-04-24T01:39:49;95344.00;;;7.71;100.00
69570;BME280;56781;42.292;23.146;2023-04-24T01:42:16;95366.63;;;7.92;100.00
69570;BME280;56781;42.292;23.146;2023-04-24T01:44:44;95333.06;;;7.91;100.00
69570;BME280;56781;42.292;23.146;2023-04-24T01:47:12;95340.34;;;8.05;100.00
69570;BME280;56781;42.292;23.146;2023-04-24T01:49:40;95365.06;;;8.29;100.00
69570;BME280;56781;42.292;23.146;2023-04-24T01:52:08;95361.56;;;8.15;100.00
69570;BME280;56781;42.292;23.146;2023-04-24T01:54:35;95324.41;;;7.81;100.00
69570;BME280;56781;42.292;23.146;2023-04-24T01:57:02;95351.44;;;7.93;100.00
69570;BME280;56781;42.292;23.146;2023-04-24T01:59:31;95344.31;;;7.88;100.00
69570;BME280;56781;42.292;23.146;2023-04-24T02:02:00;95346.13;;;7.93;100.00
69570;BME280;56781;42.292;23.146;2023-04-24T02:04:27;95339.75;;;7.89;100.00
69570;BME280;56781;42.292;23.146;2023-04-24T02:06:54;95328.66;;;8.00;100.00
69570;BME280;56781;42.292;23.146;2023-04-24T02:09:21;95319.75;;;7.91;100.00
69570;BME280;56781;42.292;23.146;2023-04-24T02:11:48;95349.94;;;8.06;100.00
69570;BME280;56781;42.292;23.146;2023-04-24T02:14:16;95326.75;;;7.87;100.00
69570;BME280;56781;42.292;23.146;2023-04-24T02:16:43;95320.97;;;7.80;100.00
69570;BME280;56781;42.292;23.146;2023-04-24T02:19:10;95313.22;;;7.60;100.00
69570;BME280;56781;42.292;23.146;2023-04-24T02:21:38;95305.50;;;7.39;100.00
69570;BME280;56781;42.292;23.146;2023-04-24T02:24:05;95328.94;;;7.37;100.00
69570;BME280;56781;42.292;23.146;2023-04-24T02:26:32;95307.72;;;7.03;100.00
69570;BME280;56781;42.292;23.146;2023-04-24T02:28:59;95298.56;;;6.90;100.00
69570;BME280;56781;42.292;23.146;2023-04-24T02:31:27;95303.09;;;6.90;100.00
69570;BME280;56781;42.292;23.146;2023-04-24T02:33:54;95292.00;;;6.82;100.00
69570;BME280;56781;42.292;23.146;2023-04-24T02:36:21;95313.94;;;6.98;100.00
69570;BME280;56781;42.292;23.146;2023-04-24T02:38:48;95296.09;;;6.70;100.00
69570;BME280;56781;42.292;23.146;2023-04-24T02:41:16;95279.84;;;6.42;100.00
69570;BME280;56781;42.292;23.146;2023-04-24T02:43:43;95287.28;;;6.45;100.00
69570;BME280;56781;42.292;23.146;2023-04-24T02:46:10;95313.13;;;6.69;100.00
69570;BME280;56781;42.292;23.146;2023-04-24T02:48:38;95283.09;;;6.68;100.00
69570;BME280;56781;42.292;23.146;2023-04-24T02:51:05;95310.66;;;6.77;100.00
69570;BME280;56781;42.292;23.146;2023-04-24T02:53:33;95285.50;;;6.64;100.00
69570;BME280;56781;42.292;23.146;2023-04-24T02:56:00;95292.31;;;6.76;100.00
69570;BME280;56781;42.292;23.146;2023-04-24T02:58:27;95293.34;;;6.80;100.00
69570;BME280;56781;42.292;23.146;2023-04-24T03:00:55;95307.50;;;6.99;100.00
69570;BME280;56781;42.292;23.146;2023-04-24T03:03:22;95280.03;;;6.80;100.00
69570;BME280;56781;42.292;23.146;2023-04-24T03:05:51;95308.81;;;7.02;100.00
69570;BME280;56781;42.292;23.146;2023-04-24T03:08:18;95293.38;;;7.04;100.00
69570;BME280;56781;42.292;23.146;2023-04-24T03:10:45;95293.94;;;7.01;100.00
69570;BME280;56781;42.292;23.146;2023-04-24T03:13:13;95284.75;;;6.88;100.00
69570;BME280;56781;42.292;23.146;2023-04-24T03:15:41;95288.97;;;6.89;100.00
69570;BME280;56781;42.292;23.146;2023-04-24T03:18:09;95317.94;;;6.96;100.00
69570;BME280;56781;42.292;23.146;2023-04-24T03:20:36;95290.06;;;6.30;100.00
69570;BME280;56781;42.292;23.146;2023-04-24T03:23:04;95289.50;;;6.33;100.00
69570;BME280;56781;42.292;23.146;2023-04-24T03:25:31;95289.22;;;6.34;100.00
69570;BME280;56781;42.292;23.146;2023-04-24T03:27:58;95286.81;;;6.38;100.00
69570;BME280;56781;42.292;23.146;2023-04-24T03:30:25;95283.22;;;6.53;100.00
69570;BME280;56781;42.292;23.146;2023-04-24T03:32:53;95271.47;;;6.59;100.00
69570;BME280;56781;42.292;23.146;2023-04-24T03:35:20;95272.94;;;6.70;100.00
69570;BME280;56781;42.292;23.146;2023-04-24T03:37:48;95276.94;;;6.68;100.00
69570;BME280;56781;42.292;23.146;2023-04-24T03:40:16;95292.09;;;6.72;100.00
69570;BME280;56781;42.292;23.146;2023-04-24T03:42:43;95282.47;;;6.76;100.00
69570;BME280;56781;42.292;23.146;2023-04-24T03:45:10;95273.47;;;6.72;100.00
69570;BME280;56781;42.292;23.146;2023-04-24T03:47:37;95276.91;;;6.73;100.00
69570;BME280;56781;42.292;23.146;2023-04-24T03:50:05;95273.16;;;6.79;100.00
69570;BME280;56781;42.292;23.146;2023-04-24T03:52:32;95292.75;;;7.12;100.00
69570;BME280;56781;42.292;23.146;2023-04-24T03:54:59;95308.56;;;7.03;100.00
69570;BME280;56781;42.292;23.146;2023-04-24T03:57:26;95295.81;;;7.00;100.00
69570;BME280;56781;42.292;23.146;2023-04-24T03:59:53;95293.25;;;6.90;100.00
69570;BME280;56781;42.292;23.146;2023-04-24T04:02:21;95290.63;;;6.85;100.00
69570;BME280;56781;42.292;23.146;2023-04-24T04:04:49;95292.59;;;6.45;100.00
69570;BME280;56781;42.292;23.146;2023-04-24T04:07:16;95293.88;;;6.13;100.00
69570;BME280;56781;42.292;23.146;2023-04-24T04:09:43;95298.22;;;6.04;100.00
69570;BME280;56781;42.292;23.146;2023-04-24T04:12:11;95293.38;;;6.11;100.00
69570;BME280;56781;42.292;23.146;2023-04-24T04:14:39;95283.84;;;6.05;100.00
69570;BME280;56781;42.292;23.146;2023-04-24T04:17:06;95306.06;;;6.54;100.00
69570;BME280;56781;42.292;23.146;2023-04-24T04:19:34;95315.88;;;6.58;100.00
69570;BME280;56781;42.292;23.146;2023-04-24T04:22:01;95296.34;;;6.44;100.00
69570;BME280;56781;42.292;23.146;2023-04-24T04:24:28;95302.81;;;6.33;100.00
69570;BME280;56781;42.292;23.146;2023-04-24T04:26:56;95305.63;;;6.47;100.00
69570;BME280;56781;42.292;23.146;2023-04-24T04:29:24;95328.63;;;6.61;100.00
69570;BME280;56781;42.292;23.146;2023-04-24T04:31:52;95276.78;;;6.30;100.00
69570;BME280;56781;42.292;23.146;2023-04-24T04:34:19;95290.97;;;6.49;100.00
69570;BME280;56781;42.292;23.146;2023-04-24T04:36:47;95303.50;;;6.73;100.00
69570;BME280;56781;42.292;23.146;2023-04-24T04:39:14;95298.47;;;7.00;100.00
69570;BME280;56781;42.292;23.146;2023-04-24T04:41:42;95313.06;;;7.27;100.00
69570;BME280;56781;42.292;23.146;2023-04-24T04:44:09;95304.09;;;7.23;100.00
69570;BME280;56781;42.292;23.146;2023-04-24T04:46:36;95327.00;;;7.19;100.00
69570;BME280;56781;42.292;23.146;2023-04-24T04:49:05;95280.47;;;6.92;100.00
69570;BME280;56781;42.292;23.146;2023-04-24T04:51:32;95312.06;;;7.23;100.00
69570;BME280;56781;42.292;23.146;2023-04-24T04:54:00;95325.75;;;7.35;100.00
69570;BME280;56781;42.292;23.146;2023-04-24T04:56:27;95283.97;;;7.12;100.00
69570;BME280;56781;42.292;23.146;2023-04-24T04:58:54;95295.38;;;6.88;100.00
69570;BME280;56781;42.292;23.146;2023-04-24T05:01:21;95329.19;;;6.87;100.00
69570;BME280;56781;42.292;23.146;2023-04-24T05:03:49;95324.13;;;6.86;100.00
69570;BME280;56781;42.292;23.146;2023-04-24T05:06:17;95316.03;;;7.01;100.00
69570;BME280;56781;42.292;23.146;2023-04-24T05:08:44;95327.13;;;7.08;100.00
69570;BME280;56781;42.292;23.146;2023-04-24T05:11:11;95307.75;;;7.51;100.00
69570;BME280;56781;42.292;23.146;2023-04-24T05:13:39;95302.16;;;8.47;100.00
69570;BME280;56781;42.292;23.146;2023-04-24T05:16:07;95316.13;;;9.73;100.00
69570;BME280;56781;42.292;23.146;2023-04-24T05:18:34;95312.19;;;10.21;100.00
69570;BME280;56781;42.292;23.146;2023-04-24T05:21:01;95284.91;;;10.78;97.90
69570;BME280;56781;42.292;23.146;2023-04-24T05:23:28;95331.56;;;11.17;96.32
69570;BME280;56781;42.292;23.146;2023-04-24T05:25:56;95309.00;;;10.55;98.21
69570;BME280;56781;42.292;23.146;2023-04-24T05:28:23;95302.78;;;10.91;97.55
69570;BME280;56781;42.292;23.146;2023-04-24T05:30:55;95298.19;;;11.23;95.52
69570;BME280;56781;42.292;23.146;2023-04-24T05:33:22;95309.06;;;13.61;86.60
69570;BME280;56781;42.292;23.146;2023-04-24T05:35:50;95309.91;;;15.33;76.41
69570;BME280;56781;42.292;23.146;2023-04-24T05:38:17;95309.00;;;15.29;76.49
69570;BME280;56781;42.292;23.146;2023-04-24T05:40:47;95304.19;;;17.33;68.59
69570;BME280;56781;42.292;23.146;2023-04-24T05:43:14;95298.72;;;18.12;62.34
69570;BME280;56781;42.292;23.146;2023-04-24T05:45:41;95305.97;;;17.89;63.54
69570;BME280;56781;42.292;23.146;2023-04-24T05:48:08;95289.69;;;19.21;58.53
69570;BME280;56781;42.292;23.146;2023-04-24T05:50:35;95282.97;;;18.18;61.69
69570;BME280;56781;42.292;23.146;2023-04-24T05:53:03;95288.66;;;19.53;58.96
69570;BME280;56781;42.292;23.146;2023-04-24T05:55:31;95288.78;;;18.36;59.00
69570;BME280;56781;42.292;23.146;2023-04-24T05:57:58;95295.97;;;18.28;61.70
69570;BME280;56781;42.292;23.146;2023-04-24T06:00:26;95295.66;;;18.49;61.29
69570;BME280;56781;42.292;23.146;2023-04-24T06:02:53;95271.50;;;18.05;60.63
69570;BME280;56781;42.292;23.146;2023-04-24T06:05:21;95270.03;;;18.86;59.20
69570;BME280;56781;42.292;23.146;2023-04-24T06:07:49;95275.78;;;20.22;56.55
69570;BME280;56781;42.292;23.146;2023-04-24T06:10:16;95294.09;;;21.23;52.93
69570;BME280;56781;42.292;23.146;2023-04-24T06:12:44;95296.63;;;19.88;55.19
69570;BME280;56781;42.292;23.146;2023-04-24T06:15:11;95275.16;;;19.79;54.40
69570;BME280;56781;42.292;23.146;2023-04-24T06:17:39;95297.94;;;19.98;54.12
69570;BME280;56781;42.292;23.146;2023-04-24T06:20:06;95271.63;;;20.32;53.55
69570;BME280;56781;42.292;23.146;2023-04-24T06:22:34;95295.31;;;20.31;51.51
69570;BME280;56781;42.292;23.146;2023-04-24T06:25:02;95298.75;;;20.89;49.93
69570;BME280;56781;42.292;23.146;2023-04-24T06:27:29;95294.25;;;21.37;48.08
69570;BME280;56781;42.292;23.146;2023-04-24T06:29:56;95292.41;;;19.90;52.45
69570;BME280;56781;42.292;23.146;2023-04-24T06:32:24;95299.63;;;20.06;53.24
69570;BME280;56781;42.292;23.146;2023-04-24T06:34:52;95280.66;;;20.40;51.87
69570;BME280;56781;42.292;23.146;2023-04-24T06:37:22;95280.38;;;20.48;50.93
69570;BME280;56781;42.292;23.146;2023-04-24T06:39:50;95271.22;;;20.94;48.92
69570;BME280;56781;42.292;23.146;2023-04-24T06:42:17;95268.63;;;21.05;50.38
69570;BME280;56781;42.292;23.146;2023-04-24T06:44:44;95282.84;;;20.91;51.26
69570;BME280;56781;42.292;23.146;2023-04-24T06:47:12;95273.75;;;21.54;48.21
69570;BME280;56781;42.292;23.146;2023-04-24T06:49:40;95266.31;;;20.12;51.57
69570;BME280;56781;42.292;23.146;2023-04-24T06:52:08;95269.78;;;20.40;52.72
69570;BME280;56781;42.292;23.146;2023-04-24T06:54:36;95260.13;;;20.46;51.65
69570;BME280;56781;42.292;23.146;2023-04-24T06:57:03;95266.47;;;18.62;58.52
69570;BME280;56781;42.292;23.146;2023-04-24T06:59:30;95243.53;;;19.94;54.50
69570;BME280;56781;42.292;23.146;2023-04-24T07:01:57;95274.03;;;20.10;52.77
69570;BME280;56781;42.292;23.146;2023-04-24T07:04:25;95244.22;;;20.14;51.01
69570;BME280;56781;42.292;23.146;2023-04-24T07:06:53;95266.63;;;20.37;52.27
69570;BME280;56781;42.292;23.146;2023-04-24T07:09:25;95267.06;;;20.09;50.76
69570;BME280;56781;42.292;23.146;2023-04-24T07:11:52;95247.75;;;20.18;52.02
69570;BME280;56781;42.292;23.146;2023-04-24T07:14:20;95237.44;;;20.01;50.94
69570;BME280;56781;42.292;23.146;2023-04-24T07:16:48;95253.91;;;20.75;49.25
69570;BME280;56781;42.292;23.146;2023-04-24T07:19:15;95262.19;;;19.96;52.59
69570;BME280;56781;42.292;23.146;2023-04-24T07:21:42;95246.13;;;19.60;51.60
69570;BME280;56781;42.292;23.146;2023-04-24T07:24:09;95273.41;;;19.67;52.28
69570;BME280;56781;42.292;23.146;2023-04-24T07:26:38;95234.09;;;20.45;51.40
69570;BME280;56781;42.292;23.146;2023-04-24T07:29:07;95241.28;;;20.00;50.97
69570;BME280;56781;42.292;23.146;2023-04-24T07:31:34;95231.22;;;20.30;50.66
69570;BME280;56781;42.292;23.146;2023-04-24T07:34:01;95236.25;;;20.96;49.10
69570;BME280;56781;42.292;23.146;2023-04-24T07:36:28;95241.06;;;20.42;50.58
69570;BME280;56781;42.292;23.146;2023-04-24T07:38:56;95233.97;;;21.01;49.99
69570;BME280;56781;42.292;23.146;2023-04-24T07:41:24;95226.38;;;20.47;50.70
69570;BME280;56781;42.292;23.146;2023-04-24T07:43:51;95215.50;;;20.47;49.07
69570;BME280;56781;42.292;23.146;2023-04-24T07:46:20;95199.28;;;20.54;50.48
69570;BME280;56781;42.292;23.146;2023-04-24T07:48:48;95212.50;;;19.95;51.46
69570;BME280;56781;42.292;23.146;2023-04-24T07:51:27;95211.16;;;20.76;50.40
69570;BME280;56781;42.292;23.146;2023-04-24T07:53:54;95190.91;;;20.73;51.39
69570;BME280;56781;42.292;23.146;2023-04-24T07:56:21;95216.44;;;20.58;50.36
69570;BME280;56781;42.292;23.146;2023-04-24T07:58:49;95201.47;;;21.19;52.24
69570;BME280;56781;42.292;23.146;2023-04-24T08:01:16;95207.34;;;21.69;48.82
69570;BME280;56781;42.292;23.146;2023-04-24T08:03:43;95213.22;;;20.52;50.23
69570;BME280;56781;42.292;23.146;2023-04-24T08:06:11;95188.91;;;21.04;49.72
69570;BME280;56781;42.292;23.146;2023-04-24T08:08:38;95204.34;;;21.89;48.82
69570;BME280;56781;42.292;23.146;2023-04-24T08:11:06;95212.66;;;21.07;50.58
69570;BME280;56781;42.292;23.146;2023-04-24T08:13:33;95198.75;;;21.64;51.81
69570;BME280;56781;42.292;23.146;2023-04-24T08:16:00;95194.91;;;21.76;48.35
69570;BME280;56781;42.292;23.146;2023-04-24T08:18:27;95183.59;;;22.43;47.53
69570;BME280;56781;42.292;23.146;2023-04-24T08:20:54;95193.78;;;21.84;47.45
69570;BME280;56781;42.292;23.146;2023-04-24T08:23:22;95174.63;;;22.46;48.53
69570;BME280;56781;42.292;23.146;2023-04-24T08:25:49;95167.06;;;22.14;46.25
69570;BME280;56781;42.292;23.146;2023-04-24T08:28:16;95170.09;;;23.36;43.35
69570;BME280;56781;42.292;23.146;2023-04-24T08:30:46;95167.25;;;22.50;41.82
69570;BME280;56781;42.292;23.146;2023-04-24T08:33:14;95140.84;;;21.85;44.04
69570;BME280;56781;42.292;23.146;2023-04-24T08:35:41;95153.56;;;21.59;43.95
69570;BME280;56781;42.292;23.146;2023-04-24T08:38:09;95157.72;;;20.23;47.37
69570;BME280;56781;42.292;23.146;2023-04-24T08:40:36;95158.97;;;20.63;46.48
69570;BME280;56781;42.292;23.146;2023-04-24T08:43:04;95127.38;;;21.40;46.29
69570;BME280;56781;42.292;23.146;2023-04-24T08:45:32;95131.81;;;20.67;45.50
69570;BME280;56781;42.292;23.146;2023-04-24T08:48:00;95132.44;;;20.94;44.87
69570;BME280;56781;42.292;23.146;2023-04-24T08:50:27;95124.09;;;21.20;45.29
69570;BME280;56781;42.292;23.146;2023-04-24T08:52:55;95134.50;;;21.63;44.87
69570;BME280;56781;42.292;23.146;2023-04-24T08:55:24;95122.41;;;21.60;42.61
69570;BME280;56781;42.292;23.146;2023-04-24T08:57:52;95129.44;;;22.52;43.40
69570;BME280;56781;42.292;23.146;2023-04-24T09:00:21;95142.69;;;22.43;40.14
69570;BME280;56781;42.292;23.146;2023-04-24T09:02:53;95112.53;;;22.07;41.67
69570;BME280;56781;42.292;23.146;2023-04-24T09:05:21;95116.22;;;22.76;42.38
69570;BME280;56781;42.292;23.146;2023-04-24T09:07:56;95114.72;;;21.77;40.09
69570;BME280;56781;42.292;23.146;2023-04-24T09:10:24;95092.28;;;22.12;40.59
69570;BME280;56781;42.292;23.146;2023-04-24T09:12:52;95111.16;;;21.65;40.50
69570;BME280;56781;42.292;23.146;2023-04-24T09:15:21;95117.44;;;21.77;39.39
69570;BME280;56781;42.292;23.146;2023-04-24T09:17:48;95112.13;;;21.36;40.45
69570;BME280;56781;42.292;23.146;2023-04-24T09:20:16;95108.69;;;21.39;40.11
69570;BME280;56781;42.292;23.146;2023-04-24T09:22:45;95110.22;;;21.36;38.46
69570;BME280;56781;42.292;23.146;2023-04-24T09:25:12;95097.16;;;21.08;38.30
69570;BME280;56781;42.292;23.146;2023-04-24T09:27:43;95097.22;;;21.15;39.10
69570;BME280;56781;42.292;23.146;2023-04-24T09:30:12;95119.25;;;21.48;37.80
69570;BME280;56781;42.292;23.146;2023-04-24T09:32:39;95106.53;;;21.66;39.91
69570;BME280;56781;42.292;23.146;2023-04-24T09:35:10;95118.81;;;21.42;37.25
69570;BME280;56781;42.292;23.146;2023-04-24T09:37:46;95098.56;;;21.39;38.59
69570;BME280;56781;42.292;23.146;2023-04-24T09:40:18;95092.22;;;21.94;38.59
69570;BME280;56781;42.292;23.146;2023-04-24T09:42:53;95105.25;;;21.49;37.38
69570;BME280;56781;42.292;23.146;2023-04-24T09:45:21;95109.84;;;21.38;38.96
69570;BME280;56781;42.292;23.146;2023-04-24T09:47:52;95081.88;;;21.44;35.61
69570;BME280;56781;42.292;23.146;2023-04-24T09:50:20;95077.69;;;21.06;35.00
69570;BME280;56781;42.292;23.146;2023-04-24T09:52:59;95088.06;;;21.38;35.15
69570;BME280;56781;42.292;23.146;2023-04-24T09:55:28;95094.59;;;21.33;32.76
69570;BME280;56781;42.292;23.146;2023-04-24T09:57:58;95062.06;;;21.48;32.63
69570;BME280;56781;42.292;23.146;2023-04-24T10:00:30;95081.25;;;21.73;34.38
69570;BME280;56781;42.292;23.146;2023-04-24T10:02:59;95064.00;;;21.51;32.77
69570;BME280;56781;42.292;23.146;2023-04-24T10:05:32;95057.91;;;21.09;34.60
69570;BME280;56781;42.292;23.146;2023-04-24T10:08:10;95079.38;;;21.21;34.21
69570;BME280;56781;42.292;23.146;2023-04-24T10:10:46;95075.88;;;21.21;36.18
69570;BME280;56781;42.292;23.146;2023-04-24T10:13:14;95064.97;;;21.98;34.65
69570;BME280;56781;42.292;23.146;2023-04-24T10:15:42;95066.72;;;21.47;34.22
69570;BME280;56781;42.292;23.146;2023-04-24T10:18:10;95062.56;;;21.78;35.08
69570;BME280;56781;42.292;23.146;2023-04-24T10:20:40;95068.28;;;21.48;37.35
69570;BME280;56781;42.292;23.146;2023-04-24T10:23:07;95057.84;;;21.64;35.75
69570;BME280;56781;42.292;23.146;2023-04-24T10:25:35;95057.31;;;22.32;37.97
69570;BME280;56781;42.292;23.146;2023-04-24T10:28:04;95048.69;;;22.16;35.68
69570;BME280;56781;42.292;23.146;2023-04-24T10:30:35;95075.25;;;22.40;35.96
69570;BME280;56781;42.292;23.146;2023-04-24T10:33:03;95060.81;;;22.36;35.86
69570;BME280;56781;42.292;23.146;2023-04-24T10:35:33;95035.44;;;22.14;36.59
69570;BME280;56781;42.292;23.146;2023-04-24T10:38:05;95046.06;;;22.59;34.83
69570;BME280;56781;42.292;23.146;2023-04-24T10:40:35;95036.25;;;22.22;35.19
69570;BME280;56781;42.292;23.146;2023-04-24T10:43:04;95052.28;;;22.59;35.86
69570;BME280;56781;42.292;23.146;2023-04-24T10:45:34;95034.38;;;22.62;34.81
69570;BME280;56781;42.292;23.146;2023-04-24T10:48:03;95035.50;;;22.71;35.35
69570;BME280;56781;42.292;23.146;2023-04-24T10:50:46;95051.88;;;22.93;35.36
69570;BME280;56781;42.292;23.146;2023-04-24T10:53:21;95033.09;;;22.12;36.33
69570;BME280;56781;42.292;23.146;2023-04-24T10:55:51;95056.41;;;21.96;36.57
69570;BME280;56781;42.292;23.146;2023-04-24T10:58:23;95037.53;;;21.48;36.73
69570;BME280;56781;42.292;23.146;2023-04-24T11:00:58;95028.34;;;21.84;37.03
69570;BME280;56781;42.292;23.146;2023-04-24T11:03:32;95041.19;;;21.80;37.04
69570;BME280;56781;42.292;23.146;2023-04-24T11:06:05;95051.09;;;22.31;37.42
69570;BME280;56781;42.292;23.146;2023-04-24T11:08:42;95033.88;;;22.09;36.93
69570;BME280;56781;42.292;23.146;2023-04-24T11:11:14;95043.19;;;22.08;36.27
69570;BME280;56781;42.292;23.146;2023-04-24T11:16:27;95027.34;;;22.78;34.75
69570;BME280;56781;42.292;23.146;2023-04-24T11:19:06;95030.88;;;22.72;34.90
69570;BME280;56781;42.292;23.146;2023-04-24T11:21:47;95019.75;;;21.79;35.43
69570;BME280;56781;42.292;23.146;2023-04-24T11:26:56;95017.50;;;22.02;36.30
69570;BME280;56781;42.292;23.146;2023-04-24T11:29:47;95003.81;;;21.04;37.23
69570;BME280;56781;42.292;23.146;2023-04-24T11:34:48;95007.69;;;21.03;39.37
69570;BME280;56781;42.292;23.146;2023-04-24T11:37:16;94975.50;;;21.12;37.75
69570;BME280;56781;42.292;23.146;2023-04-24T11:39:43;94994.91;;;21.14;36.62
69570;BME280;56781;42.292;23.146;2023-04-24T11:42:10;94989.88;;;21.09;37.56
69570;BME280;56781;42.292;23.146;2023-04-24T11:44:42;94968.81;;;21.06;37.49
69570;BME280;56781;42.292;23.146;2023-04-24T11:47:09;94981.31;;;21.14;36.99
69570;BME280;56781;42.292;23.146;2023-04-24T11:49:37;94966.50;;;21.01;37.59
69570;BME280;56781;42.292;23.146;2023-04-24T11:52:04;94985.13;;;20.95;38.38
69570;BME280;56781;42.292;23.146;2023-04-24T11:54:32;94962.38;;;20.66;38.08
69570;BME280;56781;42.292;23.146;2023-04-24T11:57:04;94960.44;;;21.36;38.02
69570;BME280;56781;42.292;23.146;2023-04-24T11:59:35;94960.47;;;21.40;37.18
69570;BME280;56781;42.292;23.146;2023-04-24T12:02:03;94964.47;;;21.82;36.16
69570;BME280;56781;42.292;23.146;2023-04-24T12:04:39;94958.31;;;22.17;36.41
69570;BME280;56781;42.292;23.146;2023-04-24T12:07:08;94940.75;;;21.89;37.48
69570;BME280;56781;42.292;23.146;2023-04-24T12:09:47;94954.78;;;21.88;36.70
69570;BME280;56781;42.292;23.146;2023-04-24T12:12:17;94949.69;;;21.79;36.67
69570;BME280;56781;42.292;23.146;2023-04-24T12:17:14;94920.13;;;21.78;36.83
69570;BME280;56781;42.292;23.146;2023-04-24T12:19:48;94928.72;;;22.05;36.95
69570;BME280;56781;42.292;23.146;2023-04-24T12:22:15;94922.09;;;22.60;36.43
69570;BME280;56781;42.292;23.146;2023-04-24T12:25:02;94913.78;;;23.17;36.70
69570;BME280;56781;42.292;23.146;2023-04-24T12:27:32;94897.53;;;22.77;34.81
69570;BME280;56781;42.292;23.146;2023-04-24T12:30:05;94903.72;;;22.92;35.50
69570;BME280;56781;42.292;23.146;2023-04-24T12:32:32;94893.56;;;23.00;34.91
69570;BME280;56781;42.292;23.146;2023-04-24T12:34:59;94904.50;;;22.82;35.43
69570;BME280;56781;42.292;23.146;2023-04-24T12:37:32;94902.25;;;22.38;36.38
69570;BME280;56781;42.292;23.146;2023-04-24T12:40:05;94888.94;;;22.75;36.36
69570;BME280;56781;42.292;23.146;2023-04-24T12:42:34;94879.28;;;22.35;37.55
69570;BME280;56781;42.292;23.146;2023-04-24T12:45:06;94876.13;;;22.54;35.81
69570;BME280;56781;42.292;23.146;2023-04-24T12:47:34;94878.44;;;22.60;34.60
69570;BME280;56781;42.292;23.146;2023-04-24T12:50:03;94883.50;;;22.65;34.53
69570;BME280;56781;42.292;23.146;2023-04-24T12:52:30;94871.09;;;22.42;34.83
69570;BME280;56781;42.292;23.146;2023-04-24T12:54:59;94869.50;;;22.52;35.62
69570;BME280;56781;42.292;23.146;2023-04-24T12:57:29;94869.41;;;22.91;35.60
69570;BME280;56781;42.292;23.146;2023-04-24T12:59:59;94873.28;;;23.05;34.92
69570;BME280;56781;42.292;23.146;2023-04-24T13:02:28;94860.03;;;22.85;35.60
69570;BME280;56781;42.292;23.146;2023-04-24T13:04:59;94861.72;;;22.36;34.49
69570;BME280;56781;42.292;23.146;2023-04-24T13:07:27;94876.56;;;22.24;35.38